Time;durP1;ratioP1;P1;durP2;ratioP2;P2;SDS_P1;SDS_P2;PMS_P1;PMS_P2;Temp;Humidity;BMP_temperature;BMP_pressure;BME280_temperature;BME280_humidity;BME280_pressure;Samples;Min_cycle;Max_cycle;Signal;HPM_P1;HPM_P2
2022/06/23 00:00:04;;;;;;;0.30;0.30;;;;;;;22.42;100.00;100456.94;2616529;54;20141;-63
2022/06/23 00:02:37;;;;;;;1.00;0.45;;;;;;;22.34;100.00;100449.88;2616389;54;20145;-62
2022/06/23 00:05:14;;;;;;;2.17;0.73;;;;;;;22.55;100.00;100451.88;2616457;54;20148;-63
2022/06/23 00:07:49;;;;;;;0.17;0.17;;;;;;;22.62;100.00;100441.44;2616198;54;20141;-62
2022/06/23 00:10:23;;;;;;;0.10;0.10;;;;;;;22.71;100.00;100430.63;2616527;54;20152;-63
2022/06/23 00:12:54;;;;;;;0.00;0.00;;;;;;;22.90;100.00;100439.94;2616454;54;20142;-63
2022/06/23 00:15:31;;;;;;;0.00;0.00;;;;;;;22.77;100.00;100429.13;2616402;54;20141;-62
2022/06/23 00:18:04;;;;;;;0.88;0.85;;;;;;;22.42;100.00;100435.78;2616275;54;20141;-63
2022/06/23 00:20:45;;;;;;;0.15;0.10;;;;;;;22.37;100.00;100440.75;2616111;54;20226;-63
2022/06/23 00:23:21;;;;;;;0.00;0.00;;;;;;;22.32;100.00;100435.16;2616193;54;20757;-62
2022/06/23 00:25:54;;;;;;;6.43;1.10;;;;;;;22.23;100.00;100436.19;2616343;54;20145;-62
2022/06/23 00:28:29;;;;;;;0.00;0.00;;;;;;;22.09;100.00;100434.31;2616748;50;20142;-62
2022/06/23 00:31:04;;;;;;;0.70;0.70;;;;;;;22.36;100.00;100431.19;2616323;54;20689;-63
2022/06/23 00:33:41;;;;;;;0.00;0.00;;;;;;;22.89;100.00;100419.75;2616439;54;20730;-62
2022/06/23 00:36:19;;;;;;;0.52;0.47;;;;;;;23.16;100.00;100428.94;2616715;54;20706;-62
2022/06/23 00:38:49;;;;;;;0.10;0.10;;;;;;;22.21;100.00;100425.81;2617186;39;20501;-63
2022/06/23 00:41:23;;;;;;;0.10;0.10;;;;;;;21.99;100.00;100429.22;2617278;39;20486;-62
2022/06/23 00:43:56;;;;;;;0.00;0.00;;;;;;;21.41;100.00;100426.94;2617036;54;20149;-62
2022/06/23 00:46:34;;;;;;;0.00;0.00;;;;;;;21.37;100.00;100422.97;2616871;54;20141;-63
2022/06/23 00:49:15;;;;;;;0.32;0.32;;;;;;;21.39;100.00;100436.81;2617267;39;20601;-63
2022/06/23 00:51:50;;;;;;;0.28;0.28;;;;;;;21.61;100.00;100443.22;2616983;54;20141;-63
2022/06/23 00:54:26;;;;;;;9.40;0.30;;;;;;;21.92;100.00;100450.25;2616977;47;20141;-62
2022/06/23 00:57:05;;;;;;;0.00;0.00;;;;;;;22.38;100.00;100435.31;2618069;39;20542;-62
2022/06/23 00:59:40;;;;;;;0.00;0.00;;;;;;;22.52;100.00;100425.78;2616988;54;20157;-63
2022/06/23 01:02:17;;;;;;;0.00;0.00;;;;;;;22.36;100.00;100436.47;2617167;54;20141;-63
2022/06/23 01:04:56;;;;;;;0.00;0.00;;;;;;;22.26;100.00;100435.88;2617032;54;20141;-63
2022/06/23 01:07:39;;;;;;;0.00;0.00;;;;;;;22.40;100.00;100448.34;2616734;54;20157;-63
2022/06/23 01:10:21;;;;;;;3.70;1.25;;;;;;;22.27;100.00;100448.91;2616957;54;20163;-63
2022/06/23 01:12:57;;;;;;;0.00;0.00;;;;;;;22.28;100.00;100444.44;2617173;54;20152;-63
2022/06/23 01:15:34;;;;;;;0.00;0.00;;;;;;;22.60;100.00;100454.00;2617268;54;20148;-63
2022/06/23 01:18:17;;;;;;;0.08;0.08;;;;;;;22.24;100.00;100445.78;2616818;54;20148;-63
2022/06/23 01:20:55;;;;;;;0.03;0.03;;;;;;;21.86;100.00;100450.91;2616934;54;20142;-62
2022/06/23 01:23:44;;;;;;;0.00;0.00;;;;;;;21.75;100.00;100453.06;2617108;54;20145;-63
2022/06/23 01:26:29;;;;;;;0.00;0.00;;;;;;;21.77;100.00;100456.38;2617235;54;20142;-62
2022/06/23 01:29:07;;;;;;;0.05;0.05;;;;;;;21.53;100.00;100467.84;2616976;54;20148;-62
2022/06/23 01:31:43;;;;;;;0.00;0.00;;;;;;;21.46;100.00;100469.50;2616925;54;20141;-62
2022/06/23 01:34:23;;;;;;;0.05;0.05;;;;;;;21.77;100.00;100465.13;2616717;54;20174;-62
2022/06/23 01:37:02;;;;;;;0.57;0.20;;;;;;;21.71;100.00;100463.16;2616805;47;20160;-62
2022/06/23 01:39:42;;;;;;;0.25;0.25;;;;;;;21.58;100.00;100467.31;2616716;54;20717;-63
2022/06/23 01:42:23;;;;;;;1.23;0.90;;;;;;;22.24;100.00;100466.94;2616852;54;20142;-63
2022/06/23 01:45:03;;;;;;;0.10;0.10;;;;;;;22.18;100.00;100471.13;2617474;54;20164;-63
2022/06/23 01:47:42;;;;;;;0.50;0.50;;;;;;;22.13;100.00;100469.97;2616656;54;20194;-63
2022/06/23 01:50:41;;;;;;;0.00;0.00;;;;;;;22.17;100.00;100480.03;2616650;54;20149;-63
2022/06/23 01:53:21;;;;;;;0.50;0.50;;;;;;;21.79;100.00;100475.50;2616521;54;20230;-62
2022/06/23 01:56:03;;;;;;;0.45;0.28;;;;;;;21.56;100.00;100475.41;2616910;54;20718;-62
2022/06/23 01:58:47;;;;;;;1.85;1.65;;;;;;;21.33;100.00;100483.22;2617535;39;20554;-62
2022/06/23 02:01:26;;;;;;;0.30;0.30;;;;;;;21.28;100.00;100482.88;2616867;54;20149;-62
2022/06/23 02:04:04;;;;;;;1.92;1.83;;;;;;;20.92;100.00;100481.53;2616794;54;20142;-62
2022/06/23 02:06:48;;;;;;;2.95;2.72;;;;;;;20.48;100.00;100484.44;2616683;54;20141;-62
2022/06/23 02:09:24;;;;;;;0.05;0.05;;;;;;;20.09;100.00;100488.56;2616649;54;20142;-62
2022/06/23 02:11:56;;;;;;;0.20;0.20;;;;;;;19.50;100.00;100490.19;2616864;54;20148;-62
2022/06/23 02:14:44;;;;;;;0.45;0.45;;;;;;;19.91;100.00;100499.16;2616602;54;20251;-62
2022/06/23 02:17:36;;;;;;;0.20;0.20;;;;;;;20.29;100.00;100494.41;2616773;54;20142;-62
2022/06/23 02:20:27;;;;;;;0.00;0.00;;;;;;;20.40;100.00;100492.31;2616631;54;20203;-63
2022/06/23 02:23:06;;;;;;;0.10;0.10;;;;;;;20.18;100.00;100487.56;2616979;39;20553;-63
2022/06/23 02:25:41;;;;;;;0.30;0.30;;;;;;;20.36;100.00;100476.97;2616699;54;20141;-62
2022/06/23 02:28:17;;;;;;;0.32;0.32;;;;;;;20.47;100.00;100476.66;2616887;54;20145;-63
2022/06/23 02:30:50;;;;;;;0.10;0.10;;;;;;;20.72;100.00;100491.56;2616420;54;20142;-63
2022/06/23 02:33:31;;;;;;;0.00;0.00;;;;;;;21.29;100.00;100494.25;2616585;54;20152;-63
2022/06/23 02:36:09;;;;;;;0.65;0.65;;;;;;;21.10;100.00;100497.22;2616608;54;20145;-63
2022/06/23 02:38:45;;;;;;;0.00;0.00;;;;;;;21.54;100.00;100500.34;2616684;54;20141;-63
2022/06/23 02:41:20;;;;;;;0.00;0.00;;;;;;;22.10;100.00;100502.03;2616784;54;20149;-63
2022/06/23 02:43:54;;;;;;;0.43;0.32;;;;;;;22.33;100.00;100500.25;2616765;54;20149;-63
2022/06/23 02:46:48;;;;;;;0.90;0.52;;;;;;;22.53;100.00;100490.91;2616730;54;20141;-63
2022/06/23 02:49:37;;;;;;;0.00;0.00;;;;;;;22.47;100.00;100493.44;2616685;54;20149;-63
2022/06/23 02:52:34;;;;;;;0.00;0.00;;;;;;;22.22;100.00;100477.69;2616956;39;20562;-63
2022/06/23 02:55:35;;;;;;;0.00;0.00;;;;;;;21.81;100.00;100494.66;2616487;54;20693;-64
2022/06/23 02:58:10;;;;;;;0.85;0.85;;;;;;;22.06;100.00;100508.66;2616597;54;20134;-64
2022/06/23 03:00:49;;;;;;;0.40;0.40;;;;;;;21.75;100.00;100508.53;2616755;54;20719;-63
2022/06/23 03:03:26;;;;;;;0.20;0.20;;;;;;;22.10;100.00;100504.69;2616553;54;20142;-63
2022/06/23 03:06:05;;;;;;;0.10;0.10;;;;;;;22.09;100.00;100510.94;2616466;54;20165;-63
2022/06/23 03:08:44;;;;;;;0.32;0.30;;;;;;;21.31;100.00;100511.56;2616544;54;20142;-63
2022/06/23 03:11:51;;;;;;;2.97;2.78;;;;;;;21.16;100.00;100515.03;2616478;54;20141;-63
2022/06/23 03:14:21;;;;;;;0.80;0.80;;;;;;;20.93;100.00;100509.56;2616482;54;20141;-62
2022/06/23 03:16:58;;;;;;;4.55;2.33;;;;;;;21.07;100.00;100515.97;2616529;54;20705;-62
2022/06/23 03:19:35;;;;;;;1.00;1.00;;;;;;;21.31;100.00;100505.47;2616368;54;20197;-62
2022/06/23 03:22:19;;;;;;;0.10;0.10;;;;;;;21.77;100.00;100504.75;2616595;54;20147;-63
2022/06/23 03:24:59;;;;;;;0.43;0.43;;;;;;;21.46;100.00;100467.66;2616663;54;20146;-62
2022/06/23 03:27:34;;;;;;;0.10;0.10;;;;;;;22.01;100.00;100508.34;2616538;54;20272;-63
2022/06/23 03:30:09;;;;;;;0.20;0.20;;;;;;;22.33;100.00;100505.56;2616815;39;20581;-63
2022/06/23 03:32:51;;;;;;;1.35;0.70;;;;;;;22.85;100.00;100508.41;2616750;54;20144;-63
2022/06/23 03:35:26;;;;;;;0.00;0.00;;;;;;;22.88;100.00;100510.69;2616405;54;20149;-63
2022/06/23 03:38:06;;;;;;;0.15;0.15;;;;;;;22.54;100.00;100516.34;2616666;54;20141;-63
2022/06/23 03:43:44;;;;;;;3.72;2.55;;;;;;;22.56;100.00;100508.22;2616633;54;20164;-63
2022/06/23 03:46:23;;;;;;;0.20;0.20;;;;;;;23.16;100.00;100513.63;2616221;54;20145;-63
2022/06/23 03:48:58;;;;;;;0.30;0.30;;;;;;;23.01;100.00;100518.06;2616302;54;20663;-62
2022/06/23 03:51:32;;;;;;;0.57;0.43;;;;;;;23.09;100.00;100518.00;2616373;54;20149;-64
2022/06/23 03:54:12;;;;;;;0.10;0.10;;;;;;;23.31;100.00;100522.44;2616505;54;20142;-62
2022/06/23 03:56:48;;;;;;;1.08;1.08;;;;;;;22.95;100.00;100518.78;2616883;46;20175;-62
2022/06/23 03:59:22;;;;;;;0.93;0.88;;;;;;;22.75;100.00;100508.63;2616492;54;20141;-63
2022/06/23 04:01:57;;;;;;;1.25;0.65;;;;;;;22.61;100.00;100511.19;2616225;54;20148;-63
2022/06/23 04:04:41;;;;;;;0.17;0.17;;;;;;;22.54;100.00;100516.34;2616691;39;20554;-63
2022/06/23 04:07:38;;;;;;;1.00;0.70;;;;;;;21.84;100.00;100524.19;2616632;54;20148;-63
2022/06/23 04:10:14;;;;;;;0.00;0.00;;;;;;;22.05;100.00;100528.13;2616067;54;20166;-63
2022/06/23 04:13:14;;;;;;;0.70;0.28;;;;;;;22.89;100.00;100528.25;2616776;39;20543;-63
2022/06/23 04:15:49;;;;;;;0.25;0.17;;;;;;;22.90;100.00;100529.88;2616405;54;20142;-63
2022/06/23 04:18:23;;;;;;;0.10;0.10;;;;;;;23.41;100.00;100528.31;2616182;54;20141;-62
2022/06/23 04:20:57;;;;;;;0.00;0.00;;;;;;;23.62;100.00;100532.97;2615898;54;20152;-63
2022/06/23 04:23:32;;;;;;;0.05;0.05;;;;;;;23.79;100.00;100532.59;2616472;54;20156;-63
2022/06/23 04:26:10;;;;;;;1.67;1.58;;;;;;;23.70;100.00;100525.75;2616353;47;20133;-63
2022/06/23 04:28:47;;;;;;;0.00;0.00;;;;;;;23.85;100.00;100538.19;2616935;54;20148;-64
2022/06/23 04:31:31;;;;;;;0.65;0.65;;;;;;;24.38;100.00;100537.94;2616250;54;20141;-63
2022/06/23 04:34:03;;;;;;;0.55;0.55;;;;;;;24.06;100.00;100543.59;2616214;54;20158;-63
2022/06/23 04:36:36;;;;;;;0.00;0.00;;;;;;;24.46;100.00;100540.47;2616109;47;20192;-63
2022/06/23 04:39:10;;;;;;;0.00;0.00;;;;;;;24.54;100.00;100543.03;2616282;54;20141;-63
2022/06/23 04:41:47;;;;;;;1.20;1.10;;;;;;;23.98;100.00;100546.34;2616272;54;20147;-63
2022/06/23 04:44:21;;;;;;;0.52;0.52;;;;;;;24.04;100.00;100548.25;2616224;54;20149;-62
2022/06/23 04:46:55;;;;;;;0.28;0.28;;;;;;;23.63;100.00;100550.50;2616016;54;20142;-63
2022/06/23 04:49:27;;;;;;;0.00;0.00;;;;;;;23.96;100.00;100554.47;2616112;54;20141;-64
2022/06/23 04:52:02;;;;;;;0.00;0.00;;;;;;;23.56;100.00;100550.38;2616142;47;20233;-63
2022/06/23 04:54:38;;;;;;;0.20;0.20;;;;;;;23.80;100.00;100557.28;2616030;54;20141;-63
2022/06/23 04:57:19;;;;;;;0.00;0.00;;;;;;;24.50;100.00;100560.31;2616141;54;20726;-63
2022/06/23 04:59:52;;;;;;;1.77;1.67;;;;;;;23.76;100.00;100554.16;2616062;54;20399;-63
2022/06/23 05:02:33;;;;;;;0.10;0.10;;;;;;;23.99;100.00;100550.63;2616945;39;20805;-64
2022/06/23 05:05:05;;;;;;;0.10;0.10;;;;;;;;;;2616093;54;20148;-63
2022/06/23 05:07:44;;;;;;;2.83;1.33;;;;;;;23.84;100.00;100568.34;2615921;54;20141;-64
2022/06/23 05:10:24;;;;;;;0.00;0.00;;;;;;;23.48;100.00;100576.94;2616072;47;20142;-63
2022/06/23 05:13:01;;;;;;;0.00;0.00;;;;;;;23.18;100.00;100581.31;2615984;54;20683;-63
2022/06/23 05:15:36;;;;;;;0.65;0.65;;;;;;;23.44;100.00;100586.25;2616051;54;20148;-64
2022/06/23 05:18:13;;;;;;;0.00;0.00;;;;;;;23.96;100.00;100577.47;2615934;54;20141;-64
2022/06/23 05:20:50;;;;;;;1.38;1.38;;;;;;;23.92;98.68;100578.84;2616309;39;20880;-63
2022/06/23 05:23:24;;;;;;;0.10;0.10;;;;;;;24.20;100.00;100583.38;2616800;54;20141;-64
2022/06/23 05:25:59;;;;;;;1.13;0.80;;;;;;;24.42;100.00;100584.28;2616859;54;20145;-63
2022/06/23 05:28:36;;;;;;;0.10;0.10;;;;;;;24.46;100.00;100585.56;2616813;54;20148;-62
2022/06/23 05:31:16;;;;;;;0.47;0.47;;;;;;;24.59;100.00;100591.03;2616897;39;20637;-64
2022/06/23 05:33:50;;;;;;;0.00;0.00;;;;;;;24.94;100.00;100580.66;2617039;47;20141;-64
2022/06/23 05:36:24;;;;;;;0.28;0.28;;;;;;;25.11;100.00;100548.38;2617016;39;20524;-63
2022/06/23 05:38:58;;;;;;;2.15;1.05;;;;;;;25.22;86.75;100567.44;2616325;54;20151;-63
2022/06/23 05:41:40;;;;;;;0.00;0.00;;;;;;;25.39;87.95;100566.16;2616323;54;20148;-63
2022/06/23 05:44:20;;;;;;;0.45;0.45;;;;;;;25.23;77.09;100582.38;2617196;54;20671;-63
2022/06/23 05:46:53;;;;;;;0.00;0.00;;;;;;;25.61;91.61;100579.25;2616549;54;20169;-63
2022/06/23 05:49:33;;;;;;;0.20;0.20;;;;;;;25.62;72.23;100566.78;2616468;54;20141;-64
2022/06/23 05:52:07;;;;;;;0.00;0.00;;;;;;;25.93;87.94;100558.41;2616632;54;20157;-64
2022/06/23 05:54:44;;;;;;;0.00;0.00;;;;;;;25.84;72.18;100575.56;2616864;54;20140;-63
2022/06/23 05:57:21;;;;;;;0.10;0.10;;;;;;;26.14;71.38;100571.63;2616666;54;20280;-64
2022/06/23 06:00:17;;;;;;;0.00;0.00;;;;;;;26.36;69.37;100572.41;2616908;54;20133;-64
2022/06/23 06:02:54;;;;;;;0.30;0.30;;;;;;;26.41;68.05;100578.75;2616804;54;20156;-64
2022/06/23 06:05:29;;;;;;;0.15;0.15;;;;;;;26.17;64.28;100571.25;2616894;54;20148;-64
2022/06/23 06:08:01;;;;;;;0.45;0.45;;;;;;;25.67;67.52;100552.94;2616609;54;20141;-63
2022/06/23 06:10:33;;;;;;;1.45;1.30;;;;;;;25.52;56.00;100585.72;2616818;54;20142;-63
2022/06/23 06:13:06;;;;;;;0.00;0.00;;;;;;;25.59;66.27;100591.09;2617083;39;20582;-64
2022/06/23 06:15:43;;;;;;;0.00;0.00;;;;;;;26.10;70.53;100591.66;2616574;54;20241;-64
2022/06/23 06:18:22;;;;;;;0.00;0.00;;;;;;;26.05;62.15;100596.75;2616589;54;20149;-64
2022/06/23 06:20:55;;;;;;;0.40;0.40;;;;;;;25.89;59.70;100599.69;2616492;54;20146;-65
2022/06/23 06:23:35;;;;;;;0.05;0.05;;;;;;;25.91;67.53;100601.16;2616447;54;20141;-64
2022/06/23 06:26:07;;;;;;;0.17;0.17;;;;;;;26.15;63.17;100601.72;2616702;46;20141;-63
2022/06/23 06:28:37;;;;;;;0.00;0.00;;;;;;;26.34;68.13;100593.06;2616719;54;20141;-65
2022/06/23 06:31:19;;;;;;;0.00;0.00;;;;;;;26.54;63.55;100593.97;2616825;39;20504;-63
2022/06/23 06:33:57;;;;;;;1.48;1.38;;;;;;;26.57;66.60;100584.75;2616757;39;20518;-63
2022/06/23 06:36:36;;;;;;;0.90;0.50;;;;;;;26.76;61.11;100582.16;2616507;54;20145;-64
2022/06/23 06:39:12;;;;;;;0.52;0.28;;;;;;;26.73;57.89;100589.72;2616567;54;20141;-63
2022/06/23 06:41:47;;;;;;;0.00;0.00;;;;;;;26.88;57.07;100583.25;2616703;54;20148;-64
2022/06/23 06:44:19;;;;;;;1.17;1.17;;;;;;;26.93;62.50;100582.66;2616628;54;20149;-63
2022/06/23 06:46:53;;;;;;;0.15;0.15;;;;;;;27.06;58.06;100580.03;2616541;54;20150;-64
2022/06/23 06:49:28;;;;;;;0.70;0.70;;;;;;;27.18;60.87;100572.25;2617126;39;20600;-63
2022/06/23 06:52:00;;;;;;;0.28;0.28;;;;;;;27.43;59.22;100582.13;2616989;39;20552;-63
2022/06/23 06:54:39;;;;;;;0.00;0.00;;;;;;;27.55;60.07;100589.53;2617237;39;20650;-65
2022/06/23 06:57:16;;;;;;;0.00;0.00;;;;;;;28.11;67.40;100590.72;2616471;54;20148;-64
2022/06/23 06:59:54;;;;;;;0.20;0.20;;;;;;;27.76;58.44;100586.66;2616774;54;20682;-64
2022/06/23 07:02:34;;;;;;;0.55;0.55;;;;;;;27.76;56.98;100590.16;2616232;54;20141;-64
2022/06/23 07:05:11;;;;;;;0.00;0.00;;;;;;;27.07;59.94;100589.66;2616455;54;20245;-63
2022/06/23 07:07:47;;;;;;;0.00;0.00;;;;;;;26.90;65.11;100591.06;2616324;54;20142;-64
2022/06/23 07:10:27;;;;;;;0.50;0.47;;;;;;;26.60;63.16;100601.13;2616928;39;20645;-65
2022/06/23 07:13:02;;;;;;;2.63;0.73;;;;;;;26.72;61.69;100590.78;2616293;54;20149;-64
2022/06/23 07:15:35;;;;;;;5.93;5.57;;;;;;;26.90;62.86;100593.72;2616460;54;20141;-64
2022/06/23 07:18:16;;;;;;;3.63;0.95;;;;;;;27.10;59.48;100601.75;2616280;54;20148;-64
2022/06/23 07:20:52;;;;;;;0.38;0.38;;;;;;;27.04;59.06;100619.38;2616512;54;20686;-64
2022/06/23 07:23:27;;;;;;;0.15;0.15;;;;;;;27.61;61.55;100620.69;2616363;54;20216;-64
2022/06/23 07:26:06;;;;;;;0.88;0.50;;;;;;;27.53;58.85;100624.38;2616504;54;20141;-64
2022/06/23 07:28:43;;;;;;;0.22;0.22;;;;;;;27.64;56.46;100628.31;2616345;54;20149;-65
2022/06/23 07:31:19;;;;;;;0.10;0.10;;;;;;;27.46;56.55;100628.88;2616429;54;20213;-64
2022/06/23 07:33:58;;;;;;;0.17;0.17;;;;;;;27.64;55.71;100641.63;2616291;54;20145;-64
2022/06/23 07:36:33;;;;;;;0.13;0.13;;;;;;;27.78;57.28;100643.25;2616384;47;20157;-64
2022/06/23 07:39:08;;;;;;;0.00;0.00;;;;;;;28.21;57.73;100648.97;2616521;47;20276;-64
2022/06/23 07:41:45;;;;;;;0.00;0.00;;;;;;;28.47;58.40;100648.13;2616474;54;20145;-64
